createdAt,value
2017-04-09T00:00:50.942Z,1039.19
2017-04-09T00:01:50.932Z,1039.2
2017-04-09T00:02:50.925Z,1039.29
2017-04-09T00:03:50.917Z,1039.35
2017-04-09T00:04:50.910Z,1039.44
2017-04-09T00:05:50.903Z,1039.54
2017-04-09T00:06:50.896Z,1039.63
2017-04-09T00:07:50.888Z,1039.68
2017-04-09T00:08:50.881Z,1039.73
2017-04-09T00:09:50.874Z,1039.87
2017-04-09T00:10:50.867Z,1039.93
2017-04-09T00:11:50.859Z,1039.97
2017-04-09T00:12:50.852Z,1040.05
2017-04-09T00:13:50.845Z,1040.13
2017-04-09T00:14:50.836Z,1040.17
2017-04-09T00:15:50.831Z,1040.18
2017-04-09T00:16:50.822Z,1040.23
2017-04-09T00:17:50.815Z,1040.25
2017-04-09T00:18:50.806Z,1040.32
2017-04-09T00:19:50.799Z,1040.34
2017-04-09T00:20:50.793Z,1040.36
2017-04-09T00:21:50.789Z,1040.43
2017-04-09T00:22:50.775Z,1040.45
2017-04-09T00:23:50.768Z,1040.48
2017-04-09T00:24:50.760Z,1040.49
2017-04-09T00:25:50.752Z,1040.53
2017-04-09T00:26:50.745Z,1040.57
2017-04-09T00:27:50.736Z,1040.56
2017-04-09T00:28:50.728Z,1040.63
2017-04-09T00:29:50.720Z,1040.67
2017-04-09T00:30:50.712Z,1040.68
2017-04-09T00:31:50.704Z,1040.72
2017-04-09T00:32:50.698Z,1040.75
2017-04-09T00:33:50.687Z,1040.72
2017-04-09T00:34:50.679Z,1040.77
2017-04-09T00:35:50.671Z,1040.77
2017-04-09T00:36:50.662Z,1040.78
2017-04-09T00:37:50.654Z,1040.79
2017-04-09T00:38:50.646Z,1040.8
2017-04-09T00:39:50.638Z,1040.81
2017-04-09T00:40:50.628Z,1040.82
2017-04-09T00:41:50.620Z,1040.83
2017-04-09T00:42:50.612Z,1040.8
2017-04-09T00:43:50.603Z,1040.8
2017-04-09T00:44:50.594Z,1040.78
2017-04-09T00:45:50.586Z,1040.74
2017-04-09T00:46:50.577Z,1040.77
2017-04-09T00:47:50.567Z,1040.76
2017-04-09T00:48:50.559Z,1040.74
2017-04-09T00:49:50.550Z,1040.74
2017-04-09T00:50:50.543Z,1040.7
2017-04-09T00:51:50.533Z,1040.69
2017-04-09T00:52:50.524Z,1040.67
2017-04-09T00:53:50.516Z,1040.69
2017-04-09T00:54:50.507Z,1040.66
2017-04-09T00:55:50.498Z,1040.68
2017-04-09T00:56:50.490Z,1040.68
2017-04-09T00:57:50.481Z,1040.67
2017-04-09T00:58:50.472Z,1040.66
2017-04-09T00:59:50.463Z,1040.68
2017-04-09T01:00:50.456Z,1040.61
2017-04-09T01:01:50.446Z,1040.63
2017-04-09T01:02:50.688Z,1040.62
2017-04-09T01:03:50.429Z,1040.63
2017-04-09T01:04:50.420Z,1040.57
2017-04-09T01:05:50.412Z,1040.54
2017-04-09T01:06:50.403Z,1040.56
2017-04-09T01:07:50.644Z,1040.52
2017-04-09T01:08:50.386Z,1040.51
2017-04-09T01:09:50.376Z,1040.46
2017-04-09T01:10:50.370Z,1040.44
2017-04-09T01:11:50.359Z,1040.42
2017-04-09T01:12:50.651Z,1040.44
2017-04-09T01:13:50.343Z,1040.4
2017-04-09T01:14:50.334Z,1040.41
2017-04-09T01:15:50.325Z,1040.38
2017-04-09T01:16:50.317Z,1040.34
2017-04-09T01:17:50.559Z,1040.31
2017-04-09T01:18:50.300Z,1040.29
2017-04-09T01:19:50.295Z,1040.25
2017-04-09T01:20:50.283Z,1040.24
2017-04-09T01:21:50.275Z,1040.21
2017-04-09T01:22:50.617Z,1040.18
2017-04-09T01:23:50.258Z,1040.18
2017-04-09T01:24:50.250Z,1040.15
2017-04-09T01:25:50.241Z,1040.16
2017-04-09T01:26:50.233Z,1040.12
2017-04-09T01:27:50.524Z,1040.19
2017-04-09T01:28:50.216Z,1040.18
2017-04-09T01:29:50.208Z,1040.2
2017-04-09T01:30:50.200Z,1040.18
2017-04-09T01:31:50.190Z,1040.17
2017-04-09T01:32:50.433Z,1040.15
2017-04-09T01:33:50.176Z,1040.15
2017-04-09T01:34:50.167Z,1040.09
2017-04-09T01:35:50.158Z,1040.1
2017-04-09T01:36:50.153Z,1040.09
2017-04-09T01:37:50.492Z,1040.04
2017-04-09T01:38:50.133Z,1040.07
2017-04-09T01:39:50.125Z,1040.03
2017-04-09T01:40:50.117Z,1040.01
2017-04-09T01:41:50.111Z,1039.96
2017-04-09T01:42:50.101Z,1039.94
2017-04-09T01:43:50.093Z,1039.89
2017-04-09T01:44:50.085Z,1039.91
2017-04-09T01:45:50.077Z,1039.89
2017-04-09T01:46:50.068Z,1039.87
2017-04-09T01:47:50.060Z,1039.88
2017-04-09T01:48:50.052Z,1039.85
2017-04-09T01:49:50.043Z,1039.87
2017-04-09T01:50:50.036Z,1039.88
2017-04-09T01:51:50.028Z,1039.87
2017-04-09T01:52:50.022Z,1039.85
2017-04-09T01:53:50.011Z,1039.85
2017-04-09T01:54:50.003Z,1039.84
2017-04-09T01:55:49.995Z,1039.84
2017-04-09T01:56:49.988Z,1039.86
2017-04-09T01:57:49.980Z,1039.82
2017-04-09T01:58:49.971Z,1039.79
2017-04-09T01:59:49.964Z,1039.76
2017-04-09T02:00:49.955Z,1039.77
2017-04-09T02:01:49.947Z,1039.76
2017-04-09T02:02:49.940Z,1039.76
2017-04-09T02:03:49.932Z,1039.73
2017-04-09T02:04:49.923Z,1039.69
2017-04-09T02:05:49.915Z,1039.66
2017-04-09T02:06:49.909Z,1039.69
2017-04-09T02:07:49.899Z,1039.69
2017-04-09T02:08:49.892Z,1039.67
2017-04-09T02:09:49.883Z,1039.67
2017-04-09T02:10:49.876Z,1039.64
2017-04-09T02:11:49.868Z,1039.64
2017-04-09T02:12:49.860Z,1039.65
2017-04-09T02:13:49.852Z,1039.65
2017-04-09T02:14:49.844Z,1039.71
2017-04-09T02:15:49.836Z,1039.72
2017-04-09T02:16:49.828Z,1039.74
2017-04-09T02:17:49.821Z,1039.75
2017-04-09T02:18:49.814Z,1039.74
2017-04-09T02:19:49.805Z,1039.74
2017-04-09T02:20:49.797Z,1039.74
2017-04-09T02:21:49.789Z,1039.75
2017-04-09T02:22:49.780Z,1039.73
2017-04-09T02:23:49.772Z,1039.71
2017-04-09T02:24:49.765Z,1039.73
2017-04-09T02:25:49.757Z,1039.74
2017-04-09T02:26:49.749Z,1039.72
2017-04-09T02:27:49.741Z,1039.72
2017-04-09T02:28:49.733Z,1039.69
2017-04-09T02:29:49.726Z,1039.68
2017-04-09T02:30:49.718Z,1039.69
2017-04-09T02:31:49.712Z,1039.69
2017-04-09T02:32:49.702Z,1039.67
2017-04-09T02:33:49.694Z,1039.66
2017-04-09T02:34:49.687Z,1039.69
2017-04-09T02:35:49.679Z,1039.66
2017-04-09T02:36:49.672Z,1039.64
2017-04-09T02:37:49.663Z,1039.63
2017-04-09T02:38:49.656Z,1039.62
2017-04-09T02:39:49.648Z,1039.63
2017-04-09T02:40:49.640Z,1039.58
2017-04-09T02:41:49.631Z,1039.62
2017-04-09T02:42:49.624Z,1039.59
2017-04-09T02:43:49.617Z,1039.61
2017-04-09T02:44:49.608Z,1039.61
2017-04-09T02:45:49.600Z,1039.64
2017-04-09T02:46:49.593Z,1039.64
2017-04-09T02:47:49.585Z,1039.63
2017-04-09T02:48:49.582Z,1039.65
2017-04-09T02:49:49.569Z,1039.64
2017-04-09T02:50:49.562Z,1039.61
2017-04-09T02:51:49.554Z,1039.63
2017-04-09T02:52:49.547Z,1039.62
2017-04-09T02:53:49.540Z,1039.66
2017-04-09T02:54:49.532Z,1039.69
2017-04-09T02:55:49.523Z,1039.72
2017-04-09T02:56:49.516Z,1039.72
2017-04-09T02:57:49.508Z,1039.7
2017-04-09T02:58:49.501Z,1039.68
2017-04-09T02:59:49.492Z,1039.68
2017-04-09T03:00:49.485Z,1039.66
2017-04-09T03:01:49.478Z,1039.69
2017-04-09T03:02:49.469Z,1039.74
2017-04-09T03:03:49.461Z,1039.77
2017-04-09T03:04:49.453Z,1039.76
2017-04-09T03:05:49.446Z,1039.77
2017-04-09T03:06:49.438Z,1039.68
2017-04-09T03:07:49.430Z,1039.66
2017-04-09T03:08:49.422Z,1039.63
2017-04-09T03:09:49.415Z,1039.64
2017-04-09T03:10:49.406Z,1039.63
2017-04-09T03:11:49.399Z,1039.64
2017-04-09T03:12:49.392Z,1039.66
2017-04-09T03:13:49.383Z,1039.63
2017-04-09T03:14:49.378Z,1039.64
2017-04-09T03:15:49.367Z,1039.63
2017-04-09T03:16:49.360Z,1039.65
2017-04-09T03:17:49.352Z,1039.65
2017-04-09T03:18:49.344Z,1039.64
2017-04-09T03:19:49.336Z,1039.64
2017-04-09T03:20:49.329Z,1039.64
2017-04-09T03:21:49.320Z,1039.68
2017-04-09T03:22:49.313Z,1039.66
2017-04-09T03:23:49.309Z,1039.63
2017-04-09T03:24:49.297Z,1039.61
2017-04-09T03:25:49.289Z,1039.61
2017-04-09T03:26:49.281Z,1039.62
2017-04-09T03:27:49.274Z,1039.58
2017-04-09T03:28:49.265Z,1039.63
2017-04-09T03:29:49.258Z,1039.62
2017-04-09T03:30:49.250Z,1039.58
2017-04-09T03:31:49.243Z,1039.59
2017-04-09T03:32:49.234Z,1039.54
2017-04-09T03:33:49.227Z,1039.5
2017-04-09T03:34:49.219Z,1039.54
2017-04-09T03:35:49.213Z,1039.52
2017-04-09T03:36:49.203Z,1039.53
2017-04-09T03:37:49.195Z,1039.55
2017-04-09T03:38:49.188Z,1039.55
2017-04-09T03:39:49.179Z,1039.56
2017-04-09T03:40:49.171Z,1039.55
2017-04-09T03:41:49.164Z,1039.59
2017-04-09T03:42:49.157Z,1039.56
2017-04-09T03:43:49.147Z,1039.59
2017-04-09T03:44:49.140Z,1039.55
2017-04-09T03:45:49.133Z,1039.6
2017-04-09T03:46:49.124Z,1039.59
2017-04-09T03:47:49.117Z,1039.61
2017-04-09T03:48:49.109Z,1039.63
2017-04-09T03:49:49.102Z,1039.61
2017-04-09T03:50:49.094Z,1039.64
2017-04-09T03:51:49.086Z,1039.61
2017-04-09T03:52:49.078Z,1039.62
2017-04-09T03:53:49.070Z,1039.63
2017-04-09T03:54:49.062Z,1039.61
2017-04-09T03:55:49.054Z,1039.58
2017-04-09T03:56:49.047Z,1039.56
2017-04-09T03:57:49.038Z,1039.56
2017-04-09T03:58:49.031Z,1039.54
2017-04-09T03:59:49.023Z,1039.54
2017-04-09T04:00:49.019Z,1039.5
2017-04-09T04:01:49.007Z,1039.51
2017-04-09T04:02:49.000Z,1039.5
2017-04-09T04:03:48.994Z,1039.5
2017-04-09T04:04:48.985Z,1039.48
2017-04-09T04:05:48.976Z,1039.53
2017-04-09T04:06:48.968Z,1039.5
2017-04-09T04:07:48.962Z,1039.52
2017-04-09T04:08:48.953Z,1039.53
2017-04-09T04:09:48.945Z,1039.57
2017-04-09T04:10:48.943Z,1039.55
2017-04-09T04:11:48.930Z,1039.52
2017-04-09T04:12:48.921Z,1039.55
2017-04-09T04:13:48.914Z,1039.57
2017-04-09T04:14:48.907Z,1039.58
2017-04-09T04:15:48.900Z,1039.6
2017-04-09T04:16:48.892Z,1039.6
2017-04-09T04:17:48.888Z,1039.59
2017-04-09T04:18:48.878Z,1039.63
2017-04-09T04:19:48.867Z,1039.61
2017-04-09T04:20:48.859Z,1039.64
2017-04-09T04:21:48.853Z,1039.61
2017-04-09T04:22:48.845Z,1039.62
2017-04-09T04:23:48.836Z,1039.66
2017-04-09T04:24:48.829Z,1039.63
2017-04-09T04:25:48.822Z,1039.67
2017-04-09T04:26:48.815Z,1039.68
2017-04-09T04:27:48.806Z,1039.69
2017-04-09T04:28:48.802Z,1039.69
2017-04-09T04:29:48.792Z,1039.73
2017-04-09T04:30:48.783Z,1039.72
2017-04-09T04:31:48.776Z,1039.7
2017-04-09T04:32:48.768Z,1039.7
2017-04-09T04:33:48.796Z,1039.67
2017-04-09T04:34:48.753Z,1039.64
2017-04-09T04:35:48.745Z,1039.72
2017-04-09T04:36:48.737Z,1039.7
2017-04-09T04:37:48.728Z,1039.71
2017-04-09T04:38:48.724Z,1039.68
2017-04-09T04:39:48.713Z,1039.63
2017-04-09T04:40:48.706Z,1039.61
2017-04-09T04:41:48.698Z,1039.65
2017-04-09T04:42:48.691Z,1039.65
2017-04-09T04:43:48.683Z,1039.67
2017-04-09T04:44:48.675Z,1039.64
2017-04-09T04:45:48.667Z,1039.63
2017-04-09T04:46:48.660Z,1039.66
2017-04-09T04:47:48.651Z,1039.66
2017-04-09T04:48:48.644Z,1039.63
2017-04-09T04:49:48.637Z,1039.64
2017-04-09T04:50:48.628Z,1039.65
2017-04-09T04:51:48.621Z,1039.65
2017-04-09T04:52:48.612Z,1039.66
2017-04-09T04:53:48.605Z,1039.64
2017-04-09T04:54:48.597Z,1039.64
2017-04-09T04:55:48.590Z,1039.71
2017-04-09T04:56:48.582Z,1039.66
2017-04-09T04:57:48.574Z,1039.59
2017-04-09T04:58:48.567Z,1039.56
2017-04-09T04:59:48.559Z,1039.62
2017-04-09T05:00:48.550Z,1039.66
2017-04-09T05:01:48.544Z,1039.65
2017-04-09T05:02:48.536Z,1039.69
2017-04-09T05:03:48.527Z,1039.65
2017-04-09T05:04:48.520Z,1039.58
2017-04-09T05:05:48.513Z,1039.57
2017-04-09T05:06:48.508Z,1039.59
2017-04-09T05:07:48.498Z,1039.6
2017-04-09T05:08:48.490Z,1039.57
2017-04-09T05:09:48.482Z,1039.6
2017-04-09T05:10:48.474Z,1039.58
2017-04-09T05:11:48.467Z,1039.57
2017-04-09T05:12:48.468Z,1039.58
2017-04-09T05:13:48.753Z,1039.58
2017-04-09T05:14:48.443Z,1039.56
2017-04-09T05:15:48.436Z,1039.53
2017-04-09T05:16:48.429Z,1039.56
2017-04-09T05:17:48.422Z,1039.55
2017-04-09T05:18:48.664Z,1039.57
2017-04-09T05:19:48.408Z,1039.53
2017-04-09T05:20:48.401Z,1039.53
2017-04-09T05:21:48.391Z,1039.54
2017-04-09T05:22:48.383Z,1039.51
2017-04-09T05:23:48.626Z,1039.43
2017-04-09T05:24:48.369Z,1039.41
2017-04-09T05:25:48.361Z,1039.42
2017-04-09T05:26:48.353Z,1039.42
2017-04-09T05:27:48.346Z,1039.45
2017-04-09T05:28:48.639Z,1039.41
2017-04-09T05:29:48.331Z,1039.42
2017-04-09T05:30:48.324Z,1039.39
2017-04-09T05:31:48.317Z,1039.39
2017-04-09T05:32:48.308Z,1039.39
2017-04-09T05:33:48.551Z,1039.34
2017-04-09T05:34:48.294Z,1039.33
2017-04-09T05:35:48.287Z,1039.27
2017-04-09T05:36:48.279Z,1039.26
2017-04-09T05:37:48.272Z,1039.21
2017-04-09T05:38:48.615Z,1039.17
2017-04-09T05:39:48.259Z,1039.19
2017-04-09T05:40:48.250Z,1039.22
2017-04-09T05:41:48.243Z,1039.16
2017-04-09T05:42:48.237Z,1039.07
2017-04-09T05:43:48.579Z,1039.07
2017-04-09T05:44:48.222Z,1039.02
2017-04-09T05:45:48.215Z,1039.02
2017-04-09T05:46:48.208Z,1039.05
2017-04-09T05:47:48.200Z,1039
2017-04-09T05:48:48.444Z,1039.03
2017-04-09T05:49:48.188Z,1039.05
2017-04-09T05:50:48.180Z,1039
2017-04-09T05:51:48.173Z,1038.94
2017-04-09T05:52:48.165Z,1038.83
2017-04-09T05:53:48.409Z,1038.84
2017-04-09T05:54:48.151Z,1038.79
2017-04-09T05:55:48.145Z,1038.75
2017-04-09T05:56:48.138Z,1038.7
2017-04-09T05:57:48.131Z,1038.72
2017-04-09T05:58:48.374Z,1038.69
2017-04-09T05:59:48.118Z,1038.75
2017-04-09T06:00:48.111Z,1038.84
2017-04-09T06:01:48.105Z,1038.83
2017-04-09T06:02:48.099Z,1038.8
2017-04-09T06:03:48.093Z,1038.71
2017-04-09T06:04:48.086Z,1038.68
2017-04-09T06:05:48.079Z,1038.74
2017-04-09T06:06:48.072Z,1038.73
2017-04-09T06:07:48.067Z,1038.7
2017-04-09T06:08:48.060Z,1038.59
2017-04-09T06:09:48.053Z,1038.57
2017-04-09T06:10:48.047Z,1038.58
2017-04-09T06:11:48.040Z,1038.61
2017-04-09T06:12:48.033Z,1038.55
2017-04-09T06:13:48.028Z,1038.46
2017-04-09T06:14:48.021Z,1038.41
2017-04-09T06:15:48.015Z,1038.37
2017-04-09T06:16:48.008Z,1038.32
2017-04-09T06:17:48.002Z,1038.23
2017-04-09T06:18:48.000Z,1038.18
2017-04-09T06:19:48.023Z,1038.18
2017-04-09T06:20:47.984Z,1038.09
2017-04-09T06:21:47.979Z,1038.05
2017-04-09T06:22:47.973Z,1038.04
2017-04-09T06:23:47.966Z,1038.02
2017-04-09T06:24:47.961Z,1038
2017-04-09T06:25:47.955Z,1037.95
2017-04-09T06:26:47.949Z,1037.87
2017-04-09T06:27:47.943Z,1037.81
2017-04-09T06:28:47.938Z,1037.72
2017-04-09T06:29:47.932Z,1037.69
2017-04-09T06:30:47.927Z,1037.68
2017-04-09T06:31:47.921Z,1037.64
2017-04-09T06:32:47.915Z,1037.61
2017-04-09T06:33:47.909Z,1037.53
2017-04-09T06:34:47.904Z,1037.49
2017-04-09T06:35:47.900Z,1037.43
2017-04-09T06:36:47.894Z,1037.47
2017-04-09T06:37:47.889Z,1037.44
2017-04-09T06:38:47.883Z,1037.38
2017-04-09T06:39:47.878Z,1037.4
2017-04-09T06:40:47.874Z,1037.4
2017-04-09T06:41:47.869Z,1037.36
2017-04-09T06:42:47.864Z,1037.34
2017-04-09T06:43:47.865Z,1037.28
2017-04-09T06:44:47.857Z,1037.24
2017-04-09T06:45:47.848Z,1037.2
2017-04-09T06:46:47.844Z,1037.13
2017-04-09T06:47:47.840Z,1037.1
2017-04-09T06:48:47.835Z,1037.04
2017-04-09T06:49:47.830Z,1037.07
2017-04-09T06:50:47.825Z,1037.05
2017-04-09T06:51:47.821Z,1037.04
2017-04-09T06:52:47.825Z,1037.02
2017-04-09T06:53:47.812Z,1037.02
2017-04-09T06:54:47.808Z,1036.94
2017-04-09T06:55:47.804Z,1036.88
2017-04-09T06:56:47.799Z,1036.78
2017-04-09T06:57:47.795Z,1036.74
2017-04-09T06:58:47.791Z,1036.71
2017-04-09T06:59:47.787Z,1036.66
2017-04-09T07:00:47.782Z,1036.62
2017-04-09T07:01:47.778Z,1036.59
2017-04-09T07:02:47.775Z,1036.54
2017-04-09T07:03:47.772Z,1036.47
2017-04-09T07:04:47.766Z,1036.41
2017-04-09T07:05:47.763Z,1036.33
2017-04-09T07:06:47.759Z,1036.31
2017-04-09T07:07:47.755Z,1036.33
2017-04-09T07:08:47.751Z,1036.26
2017-04-09T07:09:47.748Z,1036.19
2017-04-09T07:10:47.744Z,1036.17
2017-04-09T07:11:47.740Z,1036.18
2017-04-09T07:12:47.737Z,1036.17
2017-04-09T07:13:47.734Z,1036.17
2017-04-09T07:14:47.730Z,1036.19
2017-04-09T07:15:47.726Z,1036.17
2017-04-09T07:16:47.724Z,1036.15
2017-04-09T07:17:47.721Z,1036.12
2017-04-09T07:18:47.716Z,1036.1
2017-04-09T07:19:47.713Z,1036.04
2017-04-09T07:20:47.710Z,1036.04
2017-04-09T07:21:47.708Z,1035.99
2017-04-09T07:22:47.704Z,1036.03
2017-04-09T07:23:47.704Z,1035.99
2017-04-09T07:24:47.698Z,1036.01
2017-04-09T07:25:47.696Z,1035.9
2017-04-09T07:26:47.692Z,1035.89
2017-04-09T07:27:47.690Z,1035.87
2017-04-09T07:28:47.689Z,1035.79
2017-04-09T07:29:47.684Z,1035.69
2017-04-09T07:30:47.681Z,1035.6
2017-04-09T07:31:47.679Z,1035.52
2017-04-09T07:32:47.677Z,1035.56
2017-04-09T07:33:47.674Z,1035.59
2017-04-09T07:34:47.671Z,1035.53
2017-04-09T07:35:47.669Z,1035.51
2017-04-09T07:36:47.669Z,1035.44
2017-04-09T07:37:47.665Z,1035.39
2017-04-09T07:38:47.664Z,1035.3
2017-04-09T07:39:47.662Z,1035.21
2017-04-09T07:40:47.659Z,1035.16
2017-04-09T07:41:47.657Z,1035.1
2017-04-09T07:42:47.657Z,1035.07
2017-04-09T07:43:47.655Z,1035.05
2017-04-09T07:44:47.651Z,1035.01
2017-04-09T07:45:47.650Z,1034.96
2017-04-09T07:46:47.649Z,1034.96
2017-04-09T07:47:47.646Z,1034.94
2017-04-09T07:48:47.646Z,1034.94
2017-04-09T07:49:47.644Z,1034.93
2017-04-09T07:50:47.643Z,1034.9
2017-04-09T07:51:47.641Z,1034.86
2017-04-09T07:52:47.640Z,1034.83
2017-04-09T07:53:47.640Z,1034.82
2017-04-09T07:54:47.638Z,1034.82
2017-04-09T07:55:47.637Z,1034.83
2017-04-09T07:56:47.636Z,1034.84
2017-04-09T07:57:47.636Z,1034.86
2017-04-09T07:58:47.634Z,1034.82
2017-04-09T07:59:47.634Z,1034.79
2017-04-09T08:00:47.634Z,1034.69
2017-04-09T08:01:47.633Z,1034.61
2017-04-09T08:02:47.631Z,1034.56
2017-04-09T08:03:47.631Z,1034.48
2017-04-09T08:04:47.635Z,1034.46
2017-04-09T08:05:47.630Z,1034.37
2017-04-09T08:06:47.660Z,1034.33
2017-04-09T08:07:47.629Z,1034.32
2017-04-09T08:08:47.630Z,1034.26
2017-04-09T08:09:47.629Z,1034.26
2017-04-09T08:10:47.628Z,1034.18
2017-04-09T08:11:47.662Z,1034.09
2017-04-09T08:12:47.629Z,1034.06
2017-04-09T08:13:47.628Z,1034.01
2017-04-09T08:14:47.629Z,1033.96
2017-04-09T08:15:47.629Z,1033.91
2017-04-09T08:16:47.630Z,1033.91
2017-04-09T08:17:47.629Z,1033.87
2017-04-09T08:18:47.630Z,1033.89
2017-04-09T08:19:47.632Z,1033.82
2017-04-09T08:20:47.631Z,1033.8
2017-04-09T08:21:47.631Z,1033.76
2017-04-09T08:22:47.633Z,1033.69
2017-04-09T08:23:47.634Z,1033.66
2017-04-09T08:24:47.634Z,1033.58
2017-04-09T08:25:47.636Z,1033.59
2017-04-09T08:26:47.639Z,1033.58
2017-04-09T08:27:47.638Z,1033.53
2017-04-09T08:28:47.638Z,1033.48
2017-04-09T08:29:47.640Z,1033.45
2017-04-09T08:30:47.641Z,1033.43
2017-04-09T08:31:47.643Z,1033.44
2017-04-09T08:32:47.644Z,1033.41
2017-04-09T08:33:47.646Z,1033.4
2017-04-09T08:34:47.649Z,1033.31
2017-04-09T08:35:47.649Z,1033.27
2017-04-09T08:36:47.651Z,1033.26
2017-04-09T08:37:47.653Z,1033.25
2017-04-09T08:38:47.656Z,1033.26
2017-04-09T08:39:47.658Z,1033.3
2017-04-09T08:40:47.660Z,1033.3
2017-04-09T08:41:47.661Z,1033.3
2017-04-09T08:42:47.663Z,1033.32
2017-04-09T08:43:47.666Z,1033.3
2017-04-09T08:44:47.668Z,1033.27
2017-04-09T08:45:47.671Z,1033.28
2017-04-09T08:46:47.673Z,1033.32
2017-04-09T08:47:47.675Z,1033.34
2017-04-09T08:48:47.678Z,1033.4
2017-04-09T08:49:47.681Z,1033.41
2017-04-09T08:50:47.682Z,1033.39
2017-04-09T08:51:47.685Z,1033.36
2017-04-09T08:52:47.688Z,1033.39
2017-04-09T08:53:47.689Z,1033.36
2017-04-09T08:54:47.693Z,1033.42
2017-04-09T08:55:47.696Z,1033.41
2017-04-09T08:56:47.698Z,1033.39
2017-04-09T08:57:47.700Z,1033.41
2017-04-09T08:58:47.703Z,1033.46
2017-04-09T08:59:47.706Z,1033.42
2017-04-09T09:00:47.710Z,1033.38
2017-04-09T09:01:47.711Z,1033.39
2017-04-09T09:02:47.713Z,1033.33
2017-04-09T09:03:47.716Z,1033.25
2017-04-09T09:04:47.717Z,1033.21
2017-04-09T09:05:47.721Z,1033.22
2017-04-09T09:06:47.724Z,1033.24
2017-04-09T09:07:47.727Z,1033.21
2017-04-09T09:08:47.729Z,1033.18
2017-04-09T09:09:47.733Z,1033.2
2017-04-09T09:10:47.735Z,1033.22
2017-04-09T09:11:47.738Z,1033.17
2017-04-09T09:12:47.742Z,1033.18
2017-04-09T09:13:47.745Z,1033.16
2017-04-09T09:14:47.749Z,1033.16
2017-04-09T09:15:47.750Z,1033.22
2017-04-09T09:16:47.753Z,1033.28
2017-04-09T09:17:47.756Z,1033.35
2017-04-09T09:18:47.760Z,1033.45
2017-04-09T09:19:47.762Z,1033.53
2017-04-09T09:20:47.765Z,1033.62
2017-04-09T09:21:47.769Z,1033.82
2017-04-09T09:22:47.771Z,1033.94
2017-04-09T09:23:47.776Z,1034.04
2017-04-09T09:24:47.776Z,1034.16
2017-04-09T09:25:47.779Z,1034.2
2017-04-09T09:26:47.782Z,1034.24
2017-04-09T09:27:47.783Z,1034.36
2017-04-09T09:28:47.787Z,1034.43
2017-04-09T09:29:47.789Z,1034.52
2017-04-09T09:30:47.790Z,1034.59
2017-04-09T09:31:47.792Z,1034.66
2017-04-09T09:32:47.795Z,1034.64
2017-04-09T09:33:47.796Z,1034.68
2017-04-09T09:34:47.799Z,1034.65
2017-04-09T09:35:47.801Z,1034.72
2017-04-09T09:36:47.803Z,1034.71
2017-04-09T09:37:47.803Z,1034.63
2017-04-09T09:38:47.805Z,1034.57
2017-04-09T09:39:47.809Z,1034.56
2017-04-09T09:40:47.811Z,1034.4
2017-04-09T09:41:47.811Z,1034.28
2017-04-09T09:42:47.813Z,1034.13
2017-04-09T09:43:47.815Z,1034.06
2017-04-09T09:44:47.816Z,1034.07
2017-04-09T09:45:47.818Z,1034.04
2017-04-09T09:46:47.823Z,1033.92
2017-04-09T09:47:47.822Z,1033.82
2017-04-09T09:48:47.823Z,1033.78
2017-04-09T09:49:47.825Z,1033.76
2017-04-09T09:50:47.827Z,1033.73
2017-04-09T09:51:47.830Z,1033.69
2017-04-09T09:52:47.831Z,1033.7
2017-04-09T09:53:47.834Z,1033.71
2017-04-09T09:54:47.867Z,1033.66
2017-04-09T09:55:47.865Z,1033.65
2017-04-09T09:56:47.840Z,1033.66
2017-04-09T09:57:47.843Z,1033.66
2017-04-09T09:58:47.845Z,1033.58
2017-04-09T09:59:47.847Z,1033.51
2017-04-09T10:00:47.850Z,1033.44
2017-04-09T10:01:47.852Z,1033.37
2017-04-09T10:02:47.855Z,1033.29
2017-04-09T10:03:47.856Z,1033.24
2017-04-09T10:04:47.859Z,1033.44
2017-04-09T10:05:47.862Z,1033.44
2017-04-09T10:06:47.864Z,1033.46
2017-04-09T10:07:47.867Z,1033.52
2017-04-09T10:08:47.870Z,1033.55
2017-04-09T10:09:47.876Z,1033.54
2017-04-09T10:10:47.876Z,1033.47
2017-04-09T10:11:47.878Z,1033.35
2017-04-09T10:12:47.881Z,1033.3
2017-04-09T10:13:47.884Z,1033.29
2017-04-09T10:14:47.886Z,1033.3
2017-04-09T10:15:47.889Z,1033.36
2017-04-09T10:16:47.892Z,1033.39
2017-04-09T10:17:47.894Z,1033.31
2017-04-09T10:18:47.897Z,1033.32
2017-04-09T10:19:47.900Z,1033.33
2017-04-09T10:20:47.903Z,1033.37
2017-04-09T10:21:47.906Z,1033.33
2017-04-09T10:22:47.909Z,1033.37
2017-04-09T10:23:47.912Z,1033.38
2017-04-09T10:24:47.915Z,1033.37
2017-04-09T10:25:47.917Z,1033.33
2017-04-09T10:26:47.920Z,1033.42
2017-04-09T10:27:47.924Z,1033.49
2017-04-09T10:28:47.926Z,1033.52
2017-04-09T10:29:47.929Z,1033.63
2017-04-09T10:30:47.932Z,1033.7
2017-04-09T10:31:47.934Z,1033.75
2017-04-09T10:32:47.937Z,1033.73
2017-04-09T10:33:47.940Z,1033.77
2017-04-09T10:34:47.944Z,1033.79
2017-04-09T10:35:47.951Z,1033.73
2017-04-09T10:36:47.947Z,1033.68
2017-04-09T10:37:47.950Z,1033.75
2017-04-09T10:38:47.953Z,1033.74
2017-04-09T10:39:47.955Z,1033.83
2017-04-09T10:40:47.958Z,1033.85
2017-04-09T10:41:47.962Z,1033.87
2017-04-09T10:42:47.963Z,1033.88
2017-04-09T10:43:47.967Z,1033.83
2017-04-09T10:44:47.968Z,1033.81
2017-04-09T10:45:47.970Z,1033.89
2017-04-09T10:46:47.973Z,1034
2017-04-09T10:47:47.975Z,1034.1
2017-04-09T10:48:47.977Z,1034.14
2017-04-09T10:49:47.979Z,1034.24
2017-04-09T10:50:47.981Z,1034.3
2017-04-09T10:51:47.983Z,1034.41
2017-04-09T10:52:47.986Z,1034.4
2017-04-09T10:53:47.988Z,1034.39
2017-04-09T10:54:47.988Z,1034.39
2017-04-09T10:55:47.990Z,1034.42
2017-04-09T10:56:47.992Z,1034.38
2017-04-09T10:57:47.993Z,1034.42
2017-04-09T10:58:47.995Z,1034.45
2017-04-09T10:59:47.997Z,1034.45
2017-04-09T11:00:47.998Z,1034.54
2017-04-09T11:01:47.999Z,1034.64
2017-04-09T11:02:48.001Z,1034.75
2017-04-09T11:03:48.002Z,1034.92
2017-04-09T11:04:48.004Z,1035.09
2017-04-09T11:05:48.003Z,1035.15
2017-04-09T11:06:48.005Z,1035.17
2017-04-09T11:07:48.006Z,1035.12
2017-04-09T11:08:48.008Z,1035.13
2017-04-09T11:09:48.007Z,1035.15
2017-04-09T11:10:48.008Z,1035.09
2017-04-09T11:11:48.009Z,1035.12
2017-04-09T11:12:48.008Z,1035.14
2017-04-09T11:13:48.009Z,1035.17
2017-04-09T11:14:48.010Z,1035.19
2017-04-09T11:15:48.010Z,1035.22
2017-04-09T11:16:48.010Z,1035.36
2017-04-09T11:17:48.010Z,1035.39
2017-04-09T11:18:48.010Z,1035.38
2017-04-09T11:19:48.010Z,1035.47
2017-04-09T11:20:48.010Z,1035.52
2017-04-09T11:21:48.011Z,1035.54
2017-04-09T11:22:48.010Z,1035.62
2017-04-09T11:23:48.011Z,1035.77
2017-04-09T11:24:48.009Z,1035.8
2017-04-09T11:25:48.009Z,1035.82
2017-04-09T11:26:48.009Z,1035.82
2017-04-09T11:27:48.008Z,1035.84
2017-04-09T11:28:48.008Z,1035.88
2017-04-09T11:29:48.007Z,1035.91
2017-04-09T11:30:48.005Z,1035.91
2017-04-09T11:31:48.005Z,1035.92
2017-04-09T11:32:48.005Z,1035.86
2017-04-09T11:33:48.004Z,1035.86
2017-04-09T11:34:48.002Z,1035.94
2017-04-09T11:35:48.002Z,1035.96
2017-04-09T11:36:48.001Z,1036.01
2017-04-09T11:37:48.001Z,1035.98
2017-04-09T11:38:48.003Z,1035.97
2017-04-09T11:39:47.997Z,1035.88
2017-04-09T11:40:47.996Z,1036.03
2017-04-09T11:41:47.994Z,1036
2017-04-09T11:42:47.993Z,1036.02
2017-04-09T11:43:47.992Z,1036.06
2017-04-09T11:44:47.991Z,1036.06
2017-04-09T11:45:47.989Z,1036.07
2017-04-09T11:46:47.988Z,1036.13
2017-04-09T11:47:47.987Z,1036.19
2017-04-09T11:48:47.985Z,1036.17
2017-04-09T11:49:47.984Z,1036.26
2017-04-09T11:50:47.981Z,1036.28
2017-04-09T11:51:47.981Z,1036.33
2017-04-09T11:52:47.979Z,1036.35
2017-04-09T11:53:47.978Z,1036.34
2017-04-09T11:54:47.976Z,1036.33
2017-04-09T11:55:47.974Z,1036.4
2017-04-09T11:56:47.972Z,1036.41
2017-04-09T11:57:47.975Z,1036.42
2017-04-09T11:58:47.969Z,1036.39
2017-04-09T11:59:47.967Z,1036.42
2017-04-09T12:00:47.964Z,1036.44
2017-04-09T12:01:47.964Z,1036.45
2017-04-09T12:02:47.962Z,1036.5
2017-04-09T12:03:47.959Z,1036.48
2017-04-09T12:04:47.957Z,1036.47
2017-04-09T12:05:47.955Z,1036.46
2017-04-09T12:06:47.952Z,1036.48
2017-04-09T12:07:47.950Z,1036.45